sensor_id;sensor_type;location;lat;lon;timestamp;pressure;altitude;pressure_sealevel;temperature;humidity
49825;BME280;35714;55.708;37.478;2022-09-24T00:01:20;98434.34;;;11.80;68.84
49825;BME280;35714;55.708;37.478;2022-09-24T00:03:54;98428.66;;;11.77;68.74
49825;BME280;35714;55.708;37.478;2022-09-24T00:06:21;98423.47;;;11.75;68.77
49825;BME280;35714;55.708;37.478;2022-09-24T00:08:49;98418.31;;;11.73;68.81
49825;BME280;35714;55.708;37.478;2022-09-24T00:11:15;98419.97;;;11.74;68.87
49825;BME280;35714;55.708;37.478;2022-09-24T00:13:44;98418.59;;;11.77;69.30
49825;BME280;35714;55.708;37.478;2022-09-24T00:16:12;98411.00;;;11.79;68.83
49825;BME280;35714;55.708;37.478;2022-09-24T00:18:38;98402.28;;;11.77;68.80
49825;BME280;35714;55.708;37.478;2022-09-24T00:21:25;98387.63;;;11.78;68.99
49825;BME280;35714;55.708;37.478;2022-09-24T00:23:53;98383.81;;;11.74;68.98
49825;BME280;35714;55.708;37.478;2022-09-24T00:26:20;98381.09;;;11.74;69.16
49825;BME280;35714;55.708;37.478;2022-09-24T00:29:06;98372.41;;;11.72;68.82
49825;BME280;35714;55.708;37.478;2022-09-24T00:31:32;98364.28;;;11.67;68.94
49825;BME280;35714;55.708;37.478;2022-09-24T00:33:58;98353.41;;;11.67;69.17
49825;BME280;35714;55.708;37.478;2022-09-24T00:36:25;98358.84;;;11.67;69.15
49825;BME280;35714;55.708;37.478;2022-09-24T00:38:53;98353.94;;;11.64;69.23
49825;BME280;35714;55.708;37.478;2022-09-24T00:41:22;98345.81;;;11.64;69.33
49825;BME280;35714;55.708;37.478;2022-09-24T00:43:48;98334.94;;;11.64;69.43
49825;BME280;35714;55.708;37.478;2022-09-24T00:49:14;98318.09;;;11.56;69.67
49825;BME280;35714;55.708;37.478;2022-09-24T00:51:43;98312.38;;;11.53;69.72
49825;BME280;35714;55.708;37.478;2022-09-24T00:54:22;98300.19;;;11.55;69.83
49825;BME280;35714;55.708;37.478;2022-09-24T00:56:50;98292.03;;;11.55;69.72
49825;BME280;35714;55.708;37.478;2022-09-24T00:59:19;98287.41;;;11.56;69.87
49825;BME280;35714;55.708;37.478;2022-09-24T01:01:47;98285.50;;;11.56;69.81
49825;BME280;35714;55.708;37.478;2022-09-24T01:04:15;98274.66;;;11.56;70.03
49825;BME280;35714;55.708;37.478;2022-09-24T01:06:42;98269.22;;;11.51;69.74
49825;BME280;35714;55.708;37.478;2022-09-24T01:09:08;98261.88;;;11.47;69.81
49825;BME280;35714;55.708;37.478;2022-09-24T01:17:36;98246.41;;;11.47;70.28
49825;BME280;35714;55.708;37.478;2022-09-24T01:23:08;98228.47;;;11.41;70.02
49825;BME280;35714;55.708;37.478;2022-09-24T01:31:45;98224.69;;;11.37;70.79
49825;BME280;35714;55.708;37.478;2022-09-24T01:34:17;98209.47;;;11.36;70.55
49825;BME280;35714;55.708;37.478;2022-09-24T01:36:47;98212.19;;;11.36;70.65
49825;BME280;35714;55.708;37.478;2022-09-24T01:39:15;98187.50;;;11.32;70.60
49825;BME280;35714;55.708;37.478;2022-09-24T01:41:42;98192.13;;;11.32;70.69
49825;BME280;35714;55.708;37.478;2022-09-24T01:44:10;98183.16;;;11.31;70.80
49825;BME280;35714;55.708;37.478;2022-09-24T01:46:38;98186.13;;;11.30;70.67
49825;BME280;35714;55.708;37.478;2022-09-24T01:49:04;98176.13;;;11.30;70.80
49825;BME280;35714;55.708;37.478;2022-09-24T01:51:42;98170.94;;;11.34;71.08
49825;BME280;35714;55.708;37.478;2022-09-24T01:54:22;98167.69;;;11.37;71.29
49825;BME280;35714;55.708;37.478;2022-09-24T01:56:54;98172.03;;;11.38;70.90
49825;BME280;35714;55.708;37.478;2022-09-24T01:59:30;98165.53;;;11.39;70.96
49825;BME280;35714;55.708;37.478;2022-09-24T02:02:11;98160.09;;;11.44;71.05
49825;BME280;35714;55.708;37.478;2022-09-24T02:04:43;98152.50;;;11.46;70.90
49825;BME280;35714;55.708;37.478;2022-09-24T02:07:14;98158.19;;;11.50;70.77
49825;BME280;35714;55.708;37.478;2022-09-24T02:09:43;98154.09;;;11.47;70.64
49825;BME280;35714;55.708;37.478;2022-09-24T02:14:55;98148.69;;;11.52;70.92
49825;BME280;35714;55.708;37.478;2022-09-24T02:17:23;98146.53;;;11.49;70.63
49825;BME280;35714;55.708;37.478;2022-09-24T02:19:55;98136.47;;;11.50;70.74
49825;BME280;35714;55.708;37.478;2022-09-24T02:22:23;98121.84;;;11.51;70.70
49825;BME280;35714;55.708;37.478;2022-09-24T02:24:52;98117.22;;;11.51;70.63
49825;BME280;35714;55.708;37.478;2022-09-24T02:27:19;98111.78;;;11.51;70.48
49825;BME280;35714;55.708;37.478;2022-09-24T02:29:47;98105.53;;;11.51;70.53
49825;BME280;35714;55.708;37.478;2022-09-24T02:32:15;98101.72;;;11.52;70.52
49825;BME280;35714;55.708;37.478;2022-09-24T02:34:50;98098.72;;;11.53;70.77
49825;BME280;35714;55.708;37.478;2022-09-24T02:37:21;98091.69;;;11.52;70.77
49825;BME280;35714;55.708;37.478;2022-09-24T02:39:48;98088.97;;;11.52;70.52
49825;BME280;35714;55.708;37.478;2022-09-24T02:42:15;98091.13;;;11.50;70.37
49825;BME280;35714;55.708;37.478;2022-09-24T02:44:42;98092.25;;;11.49;70.74
49825;BME280;35714;55.708;37.478;2022-09-24T02:47:07;98083.00;;;11.50;70.63
49825;BME280;35714;55.708;37.478;2022-09-24T02:49:33;98077.56;;;11.50;70.85
49825;BME280;35714;55.708;37.478;2022-09-24T02:51:59;98072.97;;;11.51;70.66
49825;BME280;35714;55.708;37.478;2022-09-24T02:54:25;98064.56;;;11.52;70.61
49825;BME280;35714;55.708;37.478;2022-09-24T02:56:51;98070.53;;;11.49;70.66
49825;BME280;35714;55.708;37.478;2022-09-24T02:59:17;98072.69;;;11.47;70.74
49825;BME280;35714;55.708;37.478;2022-09-24T03:01:47;98073.50;;;11.48;70.77
49825;BME280;35714;55.708;37.478;2022-09-24T03:04:13;98068.91;;;11.43;70.68
49825;BME280;35714;55.708;37.478;2022-09-24T03:06:38;98062.91;;;11.41;70.65
49825;BME280;35714;55.708;37.478;2022-09-24T03:09:04;98059.16;;;11.37;70.80
49825;BME280;35714;55.708;37.478;2022-09-24T03:11:30;98055.06;;;11.40;70.95
49825;BME280;35714;55.708;37.478;2022-09-24T03:13:58;98066.19;;;11.43;70.86
49825;BME280;35714;55.708;37.478;2022-09-24T03:16:24;98057.78;;;11.45;70.79
49825;BME280;35714;55.708;37.478;2022-09-24T03:18:49;98055.34;;;11.43;70.90
49825;BME280;35714;55.708;37.478;2022-09-24T03:21:18;98057.22;;;11.43;71.32
49825;BME280;35714;55.708;37.478;2022-09-24T03:23:44;98049.91;;;11.43;71.01
49825;BME280;35714;55.708;37.478;2022-09-24T03:26:10;98052.34;;;11.45;70.97
49825;BME280;35714;55.708;37.478;2022-09-24T03:28:36;98050.97;;;11.47;71.09
49825;BME280;35714;55.708;37.478;2022-09-24T03:31:03;98048.81;;;11.49;71.08
49825;BME280;35714;55.708;37.478;2022-09-24T03:33:32;98052.06;;;11.51;71.10
49825;BME280;35714;55.708;37.478;2022-09-24T03:36:05;98054.75;;;11.56;71.30
49825;BME280;35714;55.708;37.478;2022-09-24T03:38:32;98042.81;;;11.58;70.96
49825;BME280;35714;55.708;37.478;2022-09-24T03:40:59;98053.13;;;11.61;70.93
49825;BME280;35714;55.708;37.478;2022-09-24T03:43:26;98044.97;;;11.61;70.82
49825;BME280;35714;55.708;37.478;2022-09-24T03:45:52;98042.00;;;11.62;70.88
49825;BME280;35714;55.708;37.478;2022-09-24T03:48:19;98041.44;;;11.65;70.83
49825;BME280;35714;55.708;37.478;2022-09-24T03:50:45;98043.31;;;11.65;70.72
49825;BME280;35714;55.708;37.478;2022-09-24T03:53:12;98038.44;;;11.67;70.68
49825;BME280;35714;55.708;37.478;2022-09-24T03:55:54;98034.06;;;11.71;70.68
49825;BME280;35714;55.708;37.478;2022-09-24T03:58:20;98023.75;;;11.68;70.54
49825;BME280;35714;55.708;37.478;2022-09-24T04:00:46;98019.16;;;11.68;70.61
49825;BME280;35714;55.708;37.478;2022-09-24T04:03:12;98016.19;;;11.70;70.58
49825;BME280;35714;55.708;37.478;2022-09-24T04:05:38;98015.63;;;11.68;70.62
49825;BME280;35714;55.708;37.478;2022-09-24T04:08:04;98014.00;;;11.67;70.75
49825;BME280;35714;55.708;37.478;2022-09-24T04:10:31;98010.47;;;11.66;70.58
49825;BME280;35714;55.708;37.478;2022-09-24T04:12:57;98004.78;;;11.63;70.42
49825;BME280;35714;55.708;37.478;2022-09-24T04:15:23;98001.81;;;11.59;70.40
49825;BME280;35714;55.708;37.478;2022-09-24T04:17:53;98002.09;;;11.58;70.42
49825;BME280;35714;55.708;37.478;2022-09-24T04:20:20;97999.13;;;11.54;70.31
49825;BME280;35714;55.708;37.478;2022-09-24T04:22:51;97986.91;;;11.51;70.17
49825;BME280;35714;55.708;37.478;2022-09-24T04:25:18;97984.75;;;11.48;70.17
49825;BME280;35714;55.708;37.478;2022-09-24T04:27:45;97976.59;;;11.48;70.19
49825;BME280;35714;55.708;37.478;2022-09-24T04:30:12;97967.38;;;11.49;70.32
49825;BME280;35714;55.708;37.478;2022-09-24T04:32:42;97968.19;;;11.50;70.22
49825;BME280;35714;55.708;37.478;2022-09-24T04:35:08;97966.56;;;11.49;70.20
49825;BME280;35714;55.708;37.478;2022-09-24T04:37:35;97963.56;;;11.50;69.65
49825;BME280;35714;55.708;37.478;2022-09-24T04:40:03;97960.31;;;11.48;69.82
49825;BME280;35714;55.708;37.478;2022-09-24T04:42:29;97950.81;;;11.46;69.84
49825;BME280;35714;55.708;37.478;2022-09-24T04:44:54;97950.81;;;11.46;69.92
49825;BME280;35714;55.708;37.478;2022-09-24T04:47:20;97944.06;;;11.43;69.84
49825;BME280;35714;55.708;37.478;2022-09-24T04:49:48;97941.06;;;11.45;69.93
49825;BME280;35714;55.708;37.478;2022-09-24T04:52:14;97939.16;;;11.45;69.86
49825;BME280;35714;55.708;37.478;2022-09-24T04:54:40;97935.91;;;11.43;69.85
49825;BME280;35714;55.708;37.478;2022-09-24T04:57:14;97929.94;;;11.46;69.82
49825;BME280;35714;55.708;37.478;2022-09-24T04:59:40;97924.50;;;11.46;70.04
49825;BME280;35714;55.708;37.478;2022-09-24T05:02:06;97914.97;;;11.49;69.87
49825;BME280;35714;55.708;37.478;2022-09-24T05:04:36;97915.25;;;11.52;69.93
49825;BME280;35714;55.708;37.478;2022-09-24T05:07:03;97903.28;;;11.53;69.54
49825;BME280;35714;55.708;37.478;2022-09-24T05:09:29;97903.28;;;11.53;69.67
49825;BME280;35714;55.708;37.478;2022-09-24T05:11:57;97892.44;;;11.53;69.73
49825;BME280;35714;55.708;37.478;2022-09-24T05:14:25;97891.88;;;11.56;69.82
49825;BME280;35714;55.708;37.478;2022-09-24T05:16:51;97885.88;;;11.60;69.66
49825;BME280;35714;55.708;37.478;2022-09-24T05:19:17;97877.22;;;11.58;69.31
49825;BME280;35714;55.708;37.478;2022-09-24T05:21:43;97868.56;;;11.55;69.37
49825;BME280;35714;55.708;37.478;2022-09-24T05:24:08;97870.44;;;11.55;69.32
49825;BME280;35714;55.708;37.478;2022-09-24T05:26:34;97865.28;;;11.53;69.39
49825;BME280;35714;55.708;37.478;2022-09-24T05:29:18;97857.97;;;11.49;69.28
49825;BME280;35714;55.708;37.478;2022-09-24T05:31:43;97856.38;;;11.48;69.47
49825;BME280;35714;55.708;37.478;2022-09-24T05:34:09;97846.88;;;11.45;69.29
49825;BME280;35714;55.708;37.478;2022-09-24T05:36:35;97839.03;;;11.44;69.68
49825;BME280;35714;55.708;37.478;2022-09-24T05:39:02;97837.09;;;11.44;69.52
49825;BME280;35714;55.708;37.478;2022-09-24T05:41:27;97825.72;;;11.42;69.42
49825;BME280;35714;55.708;37.478;2022-09-24T05:43:53;97820.88;;;11.39;69.51
49825;BME280;35714;55.708;37.478;2022-09-24T05:46:22;97811.63;;;11.40;69.42
49825;BME280;35714;55.708;37.478;2022-09-24T05:48:47;97806.78;;;11.37;69.28
49825;BME280;35714;55.708;37.478;2022-09-24T05:51:14;97804.06;;;11.37;69.42
49825;BME280;35714;55.708;37.478;2022-09-24T05:53:40;97792.09;;;11.38;69.45
49825;BME280;35714;55.708;37.478;2022-09-24T05:56:06;97789.38;;;11.38;69.41
49825;BME280;35714;55.708;37.478;2022-09-24T05:58:31;97788.28;;;11.39;69.44
49825;BME280;35714;55.708;37.478;2022-09-24T06:00:58;97782.31;;;11.42;69.27
49825;BME280;35714;55.708;37.478;2022-09-24T06:03:25;97781.25;;;11.38;68.96
49825;BME280;35714;55.708;37.478;2022-09-24T06:05:50;97782.34;;;11.37;69.28
49825;BME280;35714;55.708;37.478;2022-09-24T06:08:18;97776.69;;;11.33;68.99
49825;BME280;35714;55.708;37.478;2022-09-24T06:10:44;97774.78;;;11.34;69.14
49825;BME280;35714;55.708;37.478;2022-09-24T06:13:13;97773.38;;;11.36;69.21
49825;BME280;35714;55.708;37.478;2022-09-24T06:15:40;97761.16;;;11.39;69.18
49825;BME280;35714;55.708;37.478;2022-09-24T06:18:09;97763.31;;;11.42;69.11
49825;BME280;35714;55.708;37.478;2022-09-24T06:20:36;97758.41;;;11.44;69.15
49825;BME280;35714;55.708;37.478;2022-09-24T06:23:02;97752.69;;;11.46;69.12
49825;BME280;35714;55.708;37.478;2022-09-24T06:25:29;97752.41;;;11.47;69.15
49825;BME280;35714;55.708;37.478;2022-09-24T06:27:57;97751.38;;;11.43;69.11
49825;BME280;35714;55.708;37.478;2022-09-24T06:30:33;97758.97;;;11.41;69.39
49825;BME280;35714;55.708;37.478;2022-09-24T06:33:11;97755.97;;;11.43;69.28
49825;BME280;35714;55.708;37.478;2022-09-24T06:35:42;97760.59;;;11.42;69.31
49825;BME280;35714;55.708;37.478;2022-09-24T06:38:13;97753.03;;;11.39;69.24
49825;BME280;35714;55.708;37.478;2022-09-24T06:40:40;97750.06;;;11.35;69.14
49825;BME280;35714;55.708;37.478;2022-09-24T06:43:08;97749.53;;;11.33;69.17
49825;BME280;35714;55.708;37.478;2022-09-24T06:45:34;97743.56;;;11.31;69.19
49825;BME280;35714;55.708;37.478;2022-09-24T06:48:01;97754.69;;;11.35;69.27
49825;BME280;35714;55.708;37.478;2022-09-24T06:50:29;97754.09;;;11.38;69.36
49825;BME280;35714;55.708;37.478;2022-09-24T06:52:55;97749.22;;;11.40;69.34
49825;BME280;35714;55.708;37.478;2022-09-24T06:55:22;97750.03;;;11.41;68.93
49825;BME280;35714;55.708;37.478;2022-09-24T06:57:47;97746.22;;;11.42;69.30
49825;BME280;35714;55.708;37.478;2022-09-24T07:00:14;97749.97;;;11.46;69.25
49825;BME280;35714;55.708;37.478;2022-09-24T07:02:41;97744.28;;;11.47;69.12
49825;BME280;35714;55.708;37.478;2022-09-24T07:05:07;97747.25;;;11.51;69.06
49825;BME280;35714;55.708;37.478;2022-09-24T07:07:34;97750.78;;;11.51;68.89
49825;BME280;35714;55.708;37.478;2022-09-24T07:10:02;97745.88;;;11.53;68.82
49825;BME280;35714;55.708;37.478;2022-09-24T07:12:30;97738.25;;;11.55;68.81
49825;BME280;35714;55.708;37.478;2022-09-24T07:14:56;97736.06;;;11.58;68.85
49825;BME280;35714;55.708;37.478;2022-09-24T07:17:27;97734.16;;;11.58;68.63
49825;BME280;35714;55.708;37.478;2022-09-24T07:19:53;97732.84;;;11.55;68.73
49825;BME280;35714;55.708;37.478;2022-09-24T07:22:20;97721.97;;;11.55;68.74
49825;BME280;35714;55.708;37.478;2022-09-24T07:24:46;97725.53;;;11.51;68.82
49825;BME280;35714;55.708;37.478;2022-09-24T07:27:13;97721.47;;;11.48;68.94
49825;BME280;35714;55.708;37.478;2022-09-24T07:29:39;97719.28;;;11.50;68.86
49825;BME280;35714;55.708;37.478;2022-09-24T07:32:05;97719.28;;;11.50;68.75
49825;BME280;35714;55.708;37.478;2022-09-24T07:34:31;97722.28;;;11.49;68.89
49825;BME280;35714;55.708;37.478;2022-09-24T07:36:59;97709.00;;;11.47;69.02
49825;BME280;35714;55.708;37.478;2022-09-24T07:39:26;97712.81;;;11.46;69.05
49825;BME280;35714;55.708;37.478;2022-09-24T07:41:51;97707.38;;;11.46;68.82
49825;BME280;35714;55.708;37.478;2022-09-24T07:44:20;97709.00;;;11.47;68.77
49825;BME280;35714;55.708;37.478;2022-09-24T07:46:50;97702.47;;;11.48;68.84
49825;BME280;35714;55.708;37.478;2022-09-24T07:49:17;97700.56;;;11.49;68.68
49825;BME280;35714;55.708;37.478;2022-09-24T07:51:43;97698.13;;;11.47;68.65
49825;BME280;35714;55.708;37.478;2022-09-24T07:54:09;97698.13;;;11.47;68.45
49825;BME280;35714;55.708;37.478;2022-09-24T07:56:37;97700.34;;;11.45;68.77
49825;BME280;35714;55.708;37.478;2022-09-24T07:59:03;97693.56;;;11.43;68.72
49825;BME280;35714;55.708;37.478;2022-09-24T08:01:32;97690.03;;;11.42;68.78
49825;BME280;35714;55.708;37.478;2022-09-24T08:03:58;97690.56;;;11.44;68.88
49825;BME280;35714;55.708;37.478;2022-09-24T08:06:27;97682.41;;;11.44;68.90
49825;BME280;35714;55.708;37.478;2022-09-24T08:08:52;97687.84;;;11.44;68.79
49825;BME280;35714;55.708;37.478;2022-09-24T08:11:20;97679.97;;;11.43;68.78
49825;BME280;35714;55.708;37.478;2022-09-24T08:13:45;97679.75;;;11.39;68.70
49825;BME280;35714;55.708;37.478;2022-09-24T08:16:11;97679.28;;;11.32;68.50
49825;BME280;35714;55.708;37.478;2022-09-24T08:18:38;97679.84;;;11.29;68.93
49825;BME280;35714;55.708;37.478;2022-09-24T08:21:05;97674.94;;;11.31;68.96
49825;BME280;35714;55.708;37.478;2022-09-24T08:23:32;97680.88;;;11.33;69.16
49825;BME280;35714;55.708;37.478;2022-09-24T08:25:58;97670.59;;;11.30;68.86
49825;BME280;35714;55.708;37.478;2022-09-24T08:28:25;97671.69;;;11.29;69.01
49825;BME280;35714;55.708;37.478;2022-09-24T08:30:50;97670.59;;;11.30;68.85
49825;BME280;35714;55.708;37.478;2022-09-24T08:33:16;97670.03;;;11.33;69.02
49825;BME280;35714;55.708;37.478;2022-09-24T08:35:42;97667.88;;;11.35;68.87
49825;BME280;35714;55.708;37.478;2022-09-24T08:38:08;97665.16;;;11.35;68.85
49825;BME280;35714;55.708;37.478;2022-09-24T08:40:42;97667.81;;;11.40;69.10
49825;BME280;35714;55.708;37.478;2022-09-24T08:45:56;97656.69;;;11.42;69.15
49825;BME280;35714;55.708;37.478;2022-09-24T08:48:46;97660.72;;;11.44;68.84
49825;BME280;35714;55.708;37.478;2022-09-24T08:51:18;97660.72;;;11.44;69.15
49825;BME280;35714;55.708;37.478;2022-09-24T08:53:59;97658.00;;;11.44;68.86
49825;BME280;35714;55.708;37.478;2022-09-24T08:56:30;97661.81;;;11.43;68.79
49825;BME280;35714;55.708;37.478;2022-09-24T08:58:59;97645.00;;;11.41;68.85
49825;BME280;35714;55.708;37.478;2022-09-24T09:01:41;97650.91;;;11.48;69.17
49825;BME280;35714;55.708;37.478;2022-09-24T09:04:22;97650.34;;;11.51;69.23
49825;BME280;35714;55.708;37.478;2022-09-24T09:09:49;97649.16;;;11.63;68.65
49825;BME280;35714;55.708;37.478;2022-09-24T09:12:22;97645.06;;;11.65;68.53
49825;BME280;35714;55.708;37.478;2022-09-24T09:14:57;97645.88;;;11.66;68.22
49825;BME280;35714;55.708;37.478;2022-09-24T09:17:36;97642.06;;;11.67;68.44
49825;BME280;35714;55.708;37.478;2022-09-24T09:20:15;97639.28;;;11.72;68.51
49825;BME280;35714;55.708;37.478;2022-09-24T09:22:46;97641.94;;;11.77;68.35
49825;BME280;35714;55.708;37.478;2022-09-24T09:25:24;97639.72;;;11.84;68.42
49825;BME280;35714;55.708;37.478;2022-09-24T09:28:09;97634.81;;;11.86;68.12
49825;BME280;35714;55.708;37.478;2022-09-24T09:30:47;97629.38;;;11.86;68.06
49825;BME280;35714;55.708;37.478;2022-09-24T09:44:24;97626.63;;;11.91;67.95
49825;BME280;35714;55.708;37.478;2022-09-24T09:46:56;97609.75;;;11.95;68.10
49825;BME280;35714;55.708;37.478;2022-09-24T09:49:28;97608.59;;;12.01;67.72
49825;BME280;35714;55.708;37.478;2022-09-24T09:51:56;97604.22;;;12.05;67.77
49825;BME280;35714;55.708;37.478;2022-09-24T09:54:37;97606.06;;;12.09;68.06
49825;BME280;35714;55.708;37.478;2022-09-24T09:57:04;97601.44;;;12.10;67.97
49825;BME280;35714;55.708;37.478;2022-09-24T09:59:33;97605.72;;;12.16;67.67
49825;BME280;35714;55.708;37.478;2022-09-24T10:02:00;97600.00;;;12.18;67.74
49825;BME280;35714;55.708;37.478;2022-09-24T10:07:08;97600.50;;;12.20;67.29
49825;BME280;35714;55.708;37.478;2022-09-24T10:09:34;97595.97;;;12.15;67.33
49825;BME280;35714;55.708;37.478;2022-09-24T10:12:26;97597.06;;;12.14;67.29
49825;BME280;35714;55.708;37.478;2022-09-24T10:15:00;97590.56;;;12.10;67.44
49825;BME280;35714;55.708;37.478;2022-09-24T10:17:38;97596.00;;;12.10;67.53
49825;BME280;35714;55.708;37.478;2022-09-24T10:22:46;97591.72;;;12.04;67.40
49825;BME280;35714;55.708;37.478;2022-09-24T10:25:22;97598.00;;;12.04;67.34
49825;BME280;35714;55.708;37.478;2022-09-24T10:27:49;97596.16;;;12.00;67.30
49825;BME280;35714;55.708;37.478;2022-09-24T10:30:23;97595.88;;;11.96;67.64
49825;BME280;35714;55.708;37.478;2022-09-24T10:33:02;97597.28;;;11.94;67.57
49825;BME280;35714;55.708;37.478;2022-09-24T10:35:34;97596.75;;;11.91;67.95
49825;BME280;35714;55.708;37.478;2022-09-24T10:38:15;97582.59;;;11.95;68.02
49825;BME280;35714;55.708;37.478;2022-09-24T10:40:41;97583.44;;;11.95;67.88
49825;BME280;35714;55.708;37.478;2022-09-24T10:43:18;97593.13;;;12.01;68.25
49825;BME280;35714;55.708;37.478;2022-09-24T10:45:54;97583.06;;;12.02;68.19
49825;BME280;35714;55.708;37.478;2022-09-24T10:48:26;97586.28;;;12.04;67.88
49825;BME280;35714;55.708;37.478;2022-09-24T10:50:56;97584.91;;;12.06;68.06
49825;BME280;35714;55.708;37.478;2022-09-24T10:53:43;97582.97;;;12.12;67.80
49825;BME280;35714;55.708;37.478;2022-09-24T10:56:36;97585.59;;;12.17;67.65
49825;BME280;35714;55.708;37.478;2022-09-24T10:59:19;97581.81;;;12.18;67.49
49825;BME280;35714;55.708;37.478;2022-09-24T11:09:47;97574.56;;;12.33;67.36
49825;BME280;35714;55.708;37.478;2022-09-24T11:12:27;97580.50;;;12.35;67.28
49825;BME280;35714;55.708;37.478;2022-09-24T11:21:20;97572.63;;;12.33;66.72
49825;BME280;35714;55.708;37.478;2022-09-24T11:29:58;97572.84;;;12.37;66.78
49825;BME280;35714;55.708;37.478;2022-09-24T11:33:08;97564.34;;;12.43;66.74
49825;BME280;35714;55.708;37.478;2022-09-24T11:35:54;97561.34;;;12.45;66.76
49825;BME280;35714;55.708;37.478;2022-09-24T11:39:16;97564.88;;;12.45;66.30
49825;BME280;35714;55.708;37.478;2022-09-24T11:53:00;97548.94;;;12.39;66.49
49825;BME280;35714;55.708;37.478;2022-09-24T11:55:29;97551.69;;;12.34;66.33
49825;BME280;35714;55.708;37.478;2022-09-24T11:58:19;97547.88;;;12.35;66.34
49825;BME280;35714;55.708;37.478;2022-09-24T12:00:58;97543.53;;;12.34;66.34
49825;BME280;35714;55.708;37.478;2022-09-24T12:06:06;97544.88;;;12.36;66.34
49825;BME280;35714;55.708;37.478;2022-09-24T12:11:09;97541.94;;;12.33;66.37
49825;BME280;35714;55.708;37.478;2022-09-24T12:13:40;97540.16;;;12.23;66.44
49825;BME280;35714;55.708;37.478;2022-09-24T12:16:10;97539.41;;;12.17;66.54
49825;BME280;35714;55.708;37.478;2022-09-24T12:18:45;97544.09;;;12.12;66.68
49825;BME280;35714;55.708;37.478;2022-09-24T12:21:20;97542.03;;;12.03;66.84
49825;BME280;35714;55.708;37.478;2022-09-24T12:23:47;97534.19;;;12.02;66.93
49825;BME280;35714;55.708;37.478;2022-09-24T12:26:16;97540.41;;;12.02;66.86
49825;BME280;35714;55.708;37.478;2022-09-24T12:28:58;97536.03;;;12.06;66.91
49825;BME280;35714;55.708;37.478;2022-09-24T12:35:18;97525.91;;;12.12;66.75
49825;BME280;35714;55.708;37.478;2022-09-24T12:37:48;97531.34;;;12.12;66.93
49825;BME280;35714;55.708;37.478;2022-09-24T12:42:58;97527.75;;;12.17;66.58
49825;BME280;35714;55.708;37.478;2022-09-24T12:45:26;97525.84;;;12.17;66.67
49825;BME280;35714;55.708;37.478;2022-09-24T12:47:57;97525.84;;;12.17;66.45
49825;BME280;35714;55.708;37.478;2022-09-24T12:50:36;97523.13;;;12.17;66.67
49825;BME280;35714;55.708;37.478;2022-09-24T12:53:19;97523.63;;;12.19;66.58
49825;BME280;35714;55.708;37.478;2022-09-24T12:55:49;97518.78;;;12.16;66.62
49825;BME280;35714;55.708;37.478;2022-09-24T12:58:36;97520.41;;;12.17;66.71
49825;BME280;35714;55.708;37.478;2022-09-24T13:06:40;97524.66;;;12.04;66.67
49825;BME280;35714;55.708;37.478;2022-09-24T13:09:32;97513.50;;;12.06;66.37
49825;BME280;35714;55.708;37.478;2022-09-24T13:14:46;97520.38;;;11.98;66.82
49825;BME280;35714;55.708;37.478;2022-09-24T13:17:14;97516.25;;;12.01;66.70
49825;BME280;35714;55.708;37.478;2022-09-24T13:19:41;97525.75;;;12.03;66.77
49825;BME280;35714;55.708;37.478;2022-09-24T13:22:30;97518.94;;;12.06;66.45
49825;BME280;35714;55.708;37.478;2022-09-24T13:27:40;97519.03;;;11.96;66.02
49825;BME280;35714;55.708;37.478;2022-09-24T13:30:37;97519.63;;;11.93;66.59
49825;BME280;35714;55.708;37.478;2022-09-24T13:33:27;97522.09;;;11.89;66.59
49825;BME280;35714;55.708;37.478;2022-09-24T13:38:43;97523.53;;;11.81;66.61
49825;BME280;35714;55.708;37.478;2022-09-24T13:43:55;97522.34;;;11.68;66.86
49825;BME280;35714;55.708;37.478;2022-09-24T13:46:25;97527.00;;;11.63;67.17
49825;BME280;35714;55.708;37.478;2022-09-24T13:49:00;97524.78;;;11.65;67.15
49825;BME280;35714;55.708;37.478;2022-09-24T13:51:30;97525.97;;;11.59;67.04
49825;BME280;35714;55.708;37.478;2022-09-24T13:54:21;97519.72;;;11.58;67.12
49825;BME280;35714;55.708;37.478;2022-09-24T13:57:18;97518.34;;;11.61;67.24
49825;BME280;35714;55.708;37.478;2022-09-24T13:59:44;97512.41;;;11.59;67.28
49825;BME280;35714;55.708;37.478;2022-09-24T14:02:34;97516.13;;;11.63;67.42
49825;BME280;35714;55.708;37.478;2022-09-24T14:05:01;97504.25;;;11.59;67.21
49825;BME280;35714;55.708;37.478;2022-09-24T14:07:29;97497.22;;;11.58;67.43
49825;BME280;35714;55.708;37.478;2022-09-24T14:10:06;97509.41;;;11.60;67.55
49825;BME280;35714;55.708;37.478;2022-09-24T14:12:32;97505.91;;;11.54;67.48
49825;BME280;35714;55.708;37.478;2022-09-24T14:14:58;97505.91;;;11.54;67.62
49825;BME280;35714;55.708;37.478;2022-09-24T14:17:24;97501.00;;;11.56;67.78
49825;BME280;35714;55.708;37.478;2022-09-24T14:19:55;97511.28;;;11.60;67.74
49825;BME280;35714;55.708;37.478;2022-09-24T14:22:30;97510.19;;;11.61;67.90
49825;BME280;35714;55.708;37.478;2022-09-24T14:25:08;97504.25;;;11.59;67.75
49825;BME280;35714;55.708;37.478;2022-09-24T14:27:41;97500.44;;;11.60;67.74
49825;BME280;35714;55.708;37.478;2022-09-24T14:30:17;97495.84;;;11.60;67.84
49825;BME280;35714;55.708;37.478;2022-09-24T14:32:43;97492.06;;;11.56;67.88
49825;BME280;35714;55.708;37.478;2022-09-24T14:35:24;97497.78;;;11.54;67.86
49825;BME280;35714;55.708;37.478;2022-09-24T14:40:44;97497.56;;;11.51;68.11
49825;BME280;35714;55.708;37.478;2022-09-24T14:43:23;97499.16;;;11.52;68.14
49825;BME280;35714;55.708;37.478;2022-09-24T14:46:22;97504.28;;;11.53;68.26
49825;BME280;35714;55.708;37.478;2022-09-24T14:48:50;97500.03;;;11.47;68.07
49825;BME280;35714;55.708;37.478;2022-09-24T14:51:26;97498.94;;;11.48;68.46
49825;BME280;35714;55.708;37.478;2022-09-24T14:54:18;97495.13;;;11.49;68.42